Time;durP1;ratioP1;P1;durP2;ratioP2;P2;SDS_P1;SDS_P2;PMS_P1;PMS_P2;Temp;Humidity;BMP_temperature;BMP_pressure;BME280_temperature;BME280_humidity;BME280_pressure;Samples;Min_cycle;Max_cycle;Signal;HPM_P1;HPM_P2
2023/05/22 00:00:21;;;;;;;0.90;0.90;;;;;;;;;;5012703;28;20202;-85
2023/05/22 00:02:51;;;;;;;4.67;3.73;;;;;;;;;;5012989;28;20249;-85
2023/05/22 00:05:20;;;;;;;3.47;3.27;;;;;;;;;;5013010;28;20234;-85
2023/05/22 00:07:50;;;;;;;5.43;3.13;;;;;;;;;;5012611;28;20242;-85
2023/05/22 00:10:19;;;;;;;0.60;0.60;;;;;;;;;;5012155;28;20257;-86
2023/05/22 00:12:47;;;;;;;0.97;0.97;;;;;;;;;;5012702;28;20221;-86
2023/05/22 00:15:16;;;;;;;3.40;2.13;;;;;;;;;;5012832;28;20230;-86
2023/05/22 00:17:44;;;;;;;0.77;0.77;;;;;;;;;;5012286;28;20211;-86
2023/05/22 00:20:16;;;;;;;0.90;0.90;;;;;;;;;;5012540;28;20203;-86
2023/05/22 00:22:44;;;;;;;2.17;2.07;;;;;;;;;;5012368;28;20199;-86
2023/05/22 00:25:14;;;;;;;0.70;0.70;;;;;;;;;;5012404;28;20240;-86
2023/05/22 00:27:42;;;;;;;2.27;2.00;;;;;;;;;;5012323;28;20222;-86
2023/05/22 00:30:11;;;;;;;0.93;0.93;;;;;;;;;;5012427;28;20227;-86
2023/05/22 00:32:40;;;;;;;1.27;1.20;;;;;;;;;;5011995;28;20218;-87
2023/05/22 00:35:10;;;;;;;0.53;0.53;;;;;;;;;;5012054;28;20298;-86
2023/05/22 00:37:38;;;;;;;1.50;1.50;;;;;;;;;;5012421;28;20210;-86
2023/05/22 00:40:07;;;;;;;0.50;0.50;;;;;;;;;;5012758;28;20207;-86
2023/05/22 00:42:38;;;;;;;0.50;0.50;;;;;;;;;;5012147;28;20367;-86
2023/05/22 00:45:07;;;;;;;2.93;1.67;;;;;;;;;;5012232;28;20226;-85
2023/05/22 00:47:35;;;;;;;2.20;2.10;;;;;;;;;;5012252;28;20225;-85
2023/05/22 00:50:04;;;;;;;2.03;1.90;;;;;;;;;;5012047;28;20217;-85
2023/05/22 00:52:32;;;;;;;2.50;2.27;;;;;;;;;;5012800;28;20220;-85
2023/05/22 00:55:02;;;;;;;0.50;0.50;;;;;;;;;;5011896;28;20202;-85
2023/05/22 00:57:32;;;;;;;6.03;1.87;;;;;;;;;;5012015;28;20211;-85
2023/05/22 01:00:04;;;;;;;2.27;1.80;;;;;;;;;;5012015;28;20206;-85
2023/05/22 01:02:33;;;;;;;7.40;5.63;;;;;;;;;;5012083;28;20213;-86
2023/05/22 01:05:03;;;;;;;2.77;2.57;;;;;;;;;;5012400;28;20200;-87
2023/05/22 01:07:31;;;;;;;2.50;2.30;;;;;;;;;;5011769;28;20214;-86
2023/05/22 01:10:00;;;;;;;2.33;2.17;;;;;;;;;;5012180;28;20226;-86
2023/05/22 01:12:32;;;;;;;3.17;2.97;;;;;;;;;;5012109;28;20211;-86
2023/05/22 01:15:07;;;;;;;2.63;2.43;;;;;;;;;;5011492;28;20219;-86
2023/05/22 01:17:39;;;;;;;1.70;1.30;;;;;;;;;;5012027;28;20232;-87
2023/05/22 01:20:15;;;;;;;2.23;2.13;;;;;;;;;;5015403;28;20190;-86
2023/05/22 01:22:59;;;;;;;1.80;1.70;;;;;;;;;;5015073;28;20204;-86
2023/05/22 01:25:36;;;;;;;1.23;1.23;;;;;;;;;;5014640;28;20232;-86
2023/05/22 01:28:12;;;;;;;1.93;1.87;;;;;;;;;;5014910;28;20226;-86
2023/05/22 01:30:45;;;;;;;1.93;1.83;;;;;;;;;;5014107;28;20222;-87
2023/05/22 01:33:15;;;;;;;1.33;1.23;;;;;;;;;;5014654;28;20207;-86
2023/05/22 01:35:46;;;;;;;0.73;0.73;;;;;;;;;;5014604;28;20202;-86
2023/05/22 01:38:15;;;;;;;11.47;5.83;;;;;;;;;;5014559;28;20214;-86
2023/05/22 01:40:44;;;;;;;10.37;5.90;;;;;;;;;;5014152;28;20207;-86
2023/05/22 01:43:13;;;;;;;0.80;0.80;;;;;;;;;;5014115;28;20218;-86
2023/05/22 01:45:42;;;;;;;8.03;6.77;;;;;;;;;;5014388;28;20211;-86
2023/05/22 01:48:12;;;;;;;1.53;1.43;;;;;;;;;;5013976;28;20217;-86
2023/05/22 01:50:44;;;;;;;1.90;1.80;;;;;;;;;;5014092;28;20223;-86
2023/05/22 01:53:15;;;;;;;1.57;1.47;;;;;;;;;;5014347;28;20203;-86
2023/05/22 01:55:46;;;;;;;3.07;2.30;;;;;;;;;;5013474;28;20234;-86
2023/05/22 01:58:17;;;;;;;0.63;0.63;;;;;;;;;;5013944;28;20214;-86
2023/05/22 02:00:47;;;;;;;3.80;1.87;;;;;;;;;;5013896;28;20205;-86
2023/05/22 02:03:19;;;;;;;0.50;0.50;;;;;;;;;;5014138;28;20211;-86
2023/05/22 02:05:51;;;;;;;1.13;1.00;;;;;;;;;;5013552;28;20201;-86
2023/05/22 02:08:20;;;;;;;1.23;1.23;;;;;;;;;;5013727;28;20207;-85
2023/05/22 02:10:50;;;;;;;2.93;2.83;;;;;;;;;;5013994;28;20214;-85
2023/05/22 02:13:18;;;;;;;3.53;2.63;;;;;;;;;;5013611;28;20207;-85
2023/05/22 02:15:47;;;;;;;2.10;1.70;;;;;;;;;;5013751;28;20217;-85
2023/05/22 02:18:17;;;;;;;1.77;1.63;;;;;;;;;;5013804;28;20261;-85
2023/05/22 02:20:46;;;;;;;2.23;2.07;;;;;;;;;;5013142;28;20199;-85
2023/05/22 02:23:15;;;;;;;3.57;2.63;;;;;;;;;;4971667;28;1213693;-85
2023/05/22 02:25:43;;;;;;;11.97;6.53;;;;;;;;;;5014443;28;20203;-85
2023/05/22 02:28:12;;;;;;;6.33;3.03;;;;;;;;;;5013637;28;20235;-85
2023/05/22 02:30:40;;;;;;;3.03;2.83;;;;;;;;;;5014295;28;20257;-85
2023/05/22 02:33:10;;;;;;;6.10;4.87;;;;;;;;;;5014614;28;20256;-85
2023/05/22 02:35:39;;;;;;;6.03;3.13;;;;;;;;;;5014099;28;20289;-85
2023/05/22 02:38:08;;;;;;;19.77;7.23;;;;;;;;;;5014371;28;20206;-85
2023/05/22 02:40:36;;;;;;;9.93;6.30;;;;;;;;;;5014124;28;20194;-85
2023/05/22 02:43:05;;;;;;;6.93;6.20;;;;;;;;;;5014071;28;20269;-84
2023/05/22 02:45:34;;;;;;;2.17;2.07;;;;;;;;;;5014460;28;20206;-86
2023/05/22 02:48:02;;;;;;;2.40;2.30;;;;;;;;;;5014324;28;20209;-86
2023/05/22 02:50:31;;;;;;;4.70;3.97;;;;;;;;;;5014108;28;20207;-86
2023/05/22 02:53:01;;;;;;;10.13;6.47;;;;;;;;;;5013736;28;20205;-86
2023/05/22 02:55:29;;;;;;;6.17;4.17;;;;;;;;;;5014121;28;20217;-86
2023/05/22 02:57:57;;;;;;;2.23;2.13;;;;;;;;;;5014027;28;20310;-86
2023/05/22 03:00:26;;;;;;;6.63;3.23;;;;;;;;;;5014030;28;20208;-86
2023/05/22 03:02:54;;;;;;;6.90;4.63;;;;;;;;;;5013830;28;20206;-86
2023/05/22 03:05:23;;;;;;;3.97;2.83;;;;;;;;;;5014197;28;20199;-86
2023/05/22 03:07:52;;;;;;;0.90;0.90;;;;;;;;;;5013673;28;20209;-86
2023/05/22 03:10:22;;;;;;;2.37;2.17;;;;;;;;;;5013605;28;20225;-86
2023/05/22 03:12:50;;;;;;;2.53;2.33;;;;;;;;;;5013436;28;20225;-86
2023/05/22 03:15:19;;;;;;;3.03;2.83;;;;;;;;;;5013797;28;20210;-86
2023/05/22 03:17:47;;;;;;;1.43;1.33;;;;;;;;;;5013135;28;20194;-86
2023/05/22 03:20:16;;;;;;;4.63;2.83;;;;;;;;;;5013744;28;20201;-86
2023/05/22 03:22:45;;;;;;;3.63;3.33;;;;;;;;;;5013531;28;20186;-86
2023/05/22 03:25:14;;;;;;;0.60;0.60;;;;;;;;;;5013403;28;20216;-86
2023/05/22 03:27:43;;;;;;;1.90;1.80;;;;;;;;;;5013653;28;20241;-86
2023/05/22 03:30:12;;;;;;;2.27;2.17;;;;;;;;;;5013960;28;20202;-86
2023/05/22 03:32:41;;;;;;;3.20;2.57;;;;;;;;;;5013458;28;20231;-86
2023/05/22 03:35:11;;;;;;;1.13;1.13;;;;;;;;;;5013172;28;20301;-86
2023/05/22 03:37:40;;;;;;;6.00;4.00;;;;;;;;;;5013495;28;20201;-86
2023/05/22 03:40:09;;;;;;;2.57;2.00;;;;;;;;;;5013478;28;20298;-86
2023/05/22 03:42:37;;;;;;;1.17;1.17;;;;;;;;;;5012001;28;20194;-86
2023/05/22 03:45:08;;;;;;;0.87;0.87;;;;;;;;;;5013174;28;20209;-86
2023/05/22 03:47:36;;;;;;;6.73;4.80;;;;;;;;;;5013122;28;20199;-86
2023/05/22 03:50:05;;;;;;;1.43;1.43;;;;;;;;;;5012612;28;20206;-86
2023/05/22 03:52:34;;;;;;;1.97;1.87;;;;;;;;;;5012839;28;20225;-86
2023/05/22 03:55:03;;;;;;;8.13;5.27;;;;;;;;;;5013278;28;20202;-86
2023/05/22 03:57:31;;;;;;;0.80;0.80;;;;;;;;;;5012785;28;20208;-86
2023/05/22 04:00:08;;;;;;;1.17;1.17;;;;;;;;;;5012832;28;20218;-86
2023/05/22 04:02:38;;;;;;;5.77;5.40;;;;;;;;;;5012891;28;20195;-86
2023/05/22 04:05:09;;;;;;;2.23;2.07;;;;;;;;;;5012871;28;20202;-86
2023/05/22 04:07:38;;;;;;;0.50;0.50;;;;;;;;;;5013103;28;20202;-86
2023/05/22 04:10:07;;;;;;;0.83;0.83;;;;;;;;;;5012746;28;20212;-86
2023/05/22 04:12:35;;;;;;;0.90;0.90;;;;;;;;;;5012477;28;20222;-86
2023/05/22 04:15:04;;;;;;;0.80;0.80;;;;;;;;;;5012516;28;20202;-86
2023/05/22 04:17:33;;;;;;;2.13;2.07;;;;;;;;;;5012334;28;20194;-86
2023/05/22 04:20:04;;;;;;;0.50;0.50;;;;;;;;;;5012721;28;20261;-86
2023/05/22 04:22:32;;;;;;;0.50;0.50;;;;;;;;;;5012289;28;20198;-86
2023/05/22 04:25:01;;;;;;;1.60;1.60;;;;;;;;;;5016200;28;20242;-85
2023/05/22 04:27:29;;;;;;;1.73;0.77;;;;;;;;;;5012964;28;20222;-85
2023/05/22 04:29:58;;;;;;;1.33;1.33;;;;;;;;;;5012624;28;20199;-85
2023/05/22 04:32:28;;;;;;;23.17;21.97;;;;;;;;;;5012472;28;20225;-85
2023/05/22 04:34:59;;;;;;;4.47;3.07;;;;;;;;;;5012486;28;20210;-85
2023/05/22 04:37:30;;;;;;;4.67;4.27;;;;;;;;;;5012434;28;20208;-85
2023/05/22 04:40:05;;;;;;;2.30;2.20;;;;;;;;;;5012072;28;20210;-85
2023/05/22 04:42:34;;;;;;;1.63;1.63;;;;;;;;;;5012688;28;20202;-85
2023/05/22 04:45:02;;;;;;;8.77;3.13;;;;;;;;;;5012250;28;20202;-84
2023/05/22 04:47:31;;;;;;;10.17;4.37;;;;;;;;;;5011855;28;20286;-85
2023/05/22 04:50:01;;;;;;;1.43;1.43;;;;;;;;;;5012429;28;20210;-85
2023/05/22 04:52:31;;;;;;;0.70;0.70;;;;;;;;;;5011607;28;20219;-85
2023/05/22 04:54:59;;;;;;;2.03;1.90;;;;;;;;;;5011542;28;20202;-85
2023/05/22 04:57:29;;;;;;;0.60;0.60;;;;;;;;;;5012170;28;20216;-85
2023/05/22 04:59:58;;;;;;;3.50;3.23;;;;;;;;;;5012030;28;20208;-85
2023/05/22 05:02:27;;;;;;;0.80;0.80;;;;;;;;;;5012038;28;20256;-85
2023/05/22 05:04:55;;;;;;;1.73;1.73;;;;;;;;;;5012018;28;20211;-85
2023/05/22 05:07:24;;;;;;;0.70;0.70;;;;;;;;;;5012347;28;20207;-85
2023/05/22 05:09:54;;;;;;;0.93;0.93;;;;;;;;;;5011917;28;20206;-85
2023/05/22 05:12:22;;;;;;;4.27;3.17;;;;;;;;;;5011747;28;20242;-85
2023/05/22 05:14:51;;;;;;;3.80;2.57;;;;;;;;;;5011928;28;20214;-85
2023/05/22 05:17:21;;;;;;;1.43;1.43;;;;;;;;;;5012092;28;20211;-85
2023/05/22 05:19:49;;;;;;;0.53;0.53;;;;;;;;;;5011473;28;20214;-85
2023/05/22 05:22:18;;;;;;;1.47;1.17;;;;;;;;;;5011910;28;20261;-85
2023/05/22 05:24:46;;;;;;;1.83;1.73;;;;;;;;;;5009681;28;20239;-85
2023/05/22 05:27:20;;;;;;;2.37;2.17;;;;;;;;;;5011667;28;20230;-84
2023/05/22 05:29:48;;;;;;;0.50;0.50;;;;;;;;;;5012569;28;20234;-85
2023/05/22 05:32:18;;;;;;;0.80;0.80;;;;;;;;;;5011958;28;20227;-85
2023/05/22 05:34:47;;;;;;;2.67;1.47;;;;;;;;;;5011413;28;20219;-85
2023/05/22 05:37:16;;;;;;;8.53;2.70;;;;;;;;;;5011276;28;20306;-85
2023/05/22 05:39:44;;;;;;;0.63;0.63;;;;;;;;;;5011487;28;20204;-85
2023/05/22 05:42:13;;;;;;;0.80;0.80;;;;;;;;;;5011656;28;20207;-86
2023/05/22 05:44:42;;;;;;;2.87;1.30;;;;;;;;;;5011267;28;20208;-86
2023/05/22 05:47:11;;;;;;;8.03;4.37;;;;;;;;;;5011928;28;20200;-85
2023/05/22 05:49:39;;;;;;;1.30;1.30;;;;;;;;;;5011545;28;20204;-85
2023/05/22 05:52:08;;;;;;;1.70;1.60;;;;;;;;;;5011078;28;20226;-85
2023/05/22 05:54:36;;;;;;;5.50;2.70;;;;;;;;;;5011636;28;20207;-85
2023/05/22 05:57:05;;;;;;;5.53;2.93;;;;;;;;;;5012069;28;20196;-85
2023/05/22 05:59:33;;;;;;;3.20;2.93;;;;;;;;;;5011644;28;20208;-85
2023/05/22 06:02:03;;;;;;;4.63;3.87;;;;;;;;;;5011920;28;20207;-86
2023/05/22 06:04:32;;;;;;;9.67;6.83;;;;;;;;;;5012802;28;20257;-85
2023/05/22 06:07:01;;;;;;;8.73;2.10;;;;;;;;;;5014873;28;20209;-85
2023/05/22 06:09:29;;;;;;;3.37;3.00;;;;;;;;;;5014726;28;20196;-86
2023/05/22 06:11:58;;;;;;;3.03;2.90;;;;;;;;;;5014730;28;20201;-85
2023/05/22 06:14:26;;;;;;;4.83;4.47;;;;;;;;;;5015107;28;20223;-85
2023/05/22 06:16:55;;;;;;;9.03;4.40;;;;;;;;;;5014269;28;20257;-86
2023/05/22 06:19:25;;;;;;;4.47;4.13;;;;;;;;;;5014504;28;20210;-85
2023/05/22 06:21:53;;;;;;;12.30;6.33;;;;;;;;;;5014856;28;20255;-85
2023/05/22 06:24:22;;;;;;;1.13;1.13;;;;;;;;;;5014242;28;20262;-85
2023/05/22 06:26:50;;;;;;;2.97;2.77;;;;;;;;;;5014437;28;20228;-87
2023/05/22 06:29:20;;;;;;;3.30;2.20;;;;;;;;;;5014888;28;20207;-85
2023/05/22 06:31:48;;;;;;;12.47;8.90;;;;;;;;;;5014753;28;20214;-86
2023/05/22 06:34:17;;;;;;;2.73;2.53;;;;;;;;;;5015953;28;20222;-85
2023/05/22 06:36:49;;;;;;;5.07;2.00;;;;;;;;;;5014892;28;20209;-85
2023/05/22 06:39:18;;;;;;;0.83;0.83;;;;;;;;;;5014614;28;20204;-86
2023/05/22 06:41:46;;;;;;;2.13;1.70;;;;;;;;;;5014043;28;20207;-86
2023/05/22 06:44:15;;;;;;;0.77;0.77;;;;;;;;;;5014605;28;20205;-86
2023/05/22 06:46:43;;;;;;;4.13;2.70;;;;;;;;;;5014173;28;20258;-86
2023/05/22 06:49:12;;;;;;;1.90;1.80;;;;;;;;;;5014302;28;20236;-85
2023/05/22 06:51:40;;;;;;;2.30;2.20;;;;;;;;;;5014003;28;20232;-85
2023/05/22 06:54:12;;;;;;;4.63;4.20;;;;;;;;;;5014448;28;20224;-85
2023/05/22 06:56:41;;;;;;;0.90;0.90;;;;;;;;;;5014126;28;20196;-85
2023/05/22 06:59:10;;;;;;;3.60;2.67;;;;;;;;;;5013993;28;20219;-86
2023/05/22 07:01:39;;;;;;;0.73;0.73;;;;;;;;;;5014160;28;20210;-85
2023/05/22 07:04:10;;;;;;;2.40;2.23;;;;;;;;;;5013919;28;20201;-85
2023/05/22 07:06:40;;;;;;;6.70;3.13;;;;;;;;;;5013571;28;20263;-85
2023/05/22 07:09:12;;;;;;;14.43;9.43;;;;;;;;;;5014105;28;20200;-86
2023/05/22 07:11:41;;;;;;;7.90;6.97;;;;;;;;;;5013974;28;20219;-86
2023/05/22 07:14:11;;;;;;;6.47;4.03;;;;;;;;;;5013447;28;20231;-86
2023/05/22 07:16:40;;;;;;;8.60;5.63;;;;;;;;;;5012643;28;20202;-85
2023/05/22 07:19:09;;;;;;;9.10;7.83;;;;;;;;;;5013764;28;20217;-86
2023/05/22 07:21:37;;;;;;;9.10;6.60;;;;;;;;;;5013649;28;20218;-86
2023/05/22 07:24:08;;;;;;;6.43;5.67;;;;;;;;;;5013601;28;20232;-85
2023/05/22 07:26:38;;;;;;;8.50;5.00;;;;;;;;;;5013193;28;20211;-85
2023/05/22 07:29:06;;;;;;;8.80;7.80;;;;;;;;;;5013744;28;20208;-86
2023/05/22 07:31:35;;;;;;;12.73;5.27;;;;;;;;;;5012765;28;20220;-85
2023/05/22 07:34:04;;;;;;;6.40;5.80;;;;;;;;;;5013690;28;20220;-85
2023/05/22 07:36:33;;;;;;;11.73;6.70;;;;;;;;;;5013306;28;20209;-85
2023/05/22 07:39:02;;;;;;;5.63;4.43;;;;;;;;;;5012940;28;20226;-86
2023/05/22 07:41:32;;;;;;;7.20;6.47;;;;;;;;;;5013732;28;20240;-86
2023/05/22 07:44:02;;;;;;;11.20;6.07;;;;;;;;;;5013312;28;20189;-85
2023/05/22 07:46:30;;;;;;;5.63;5.13;;;;;;;;;;5012880;28;20201;-85
2023/05/22 07:48:59;;;;;;;8.87;6.83;;;;;;;;;;5013235;28;20208;-86
2023/05/22 07:51:27;;;;;;;7.17;5.50;;;;;;;;;;5013403;28;20208;-85
2023/05/22 07:53:56;;;;;;;8.77;6.87;;;;;;;;;;5013194;28;20229;-86
2023/05/22 07:56:26;;;;;;;6.60;4.23;;;;;;;;;;5012797;28;20206;-85
2023/05/22 07:58:54;;;;;;;6.00;4.27;;;;;;;;;;5013341;28;20208;-86
2023/05/22 08:01:24;;;;;;;15.17;5.47;;;;;;;;;;5013263;28;20202;-86
2023/05/22 08:03:53;;;;;;;8.10;5.97;;;;;;;;;;5013129;28;20206;-85
2023/05/22 08:06:22;;;;;;;5.00;3.80;;;;;;;;;;5012645;28;20206;-85
2023/05/22 08:08:55;;;;;;;6.10;5.37;;;;;;;;;;5000691;28;20231;-85
2023/05/22 08:11:25;;;;;;;6.90;4.17;;;;;;;;;;5005138;28;20231;-85
2023/05/22 08:13:53;;;;;;;3.87;3.47;;;;;;;;;;5011370;28;20237;-86
2023/05/22 08:16:25;;;;;;;5.27;4.20;;;;;;;;;;5002267;28;20221;-86
2023/05/22 08:18:56;;;;;;;15.27;9.20;;;;;;;;;;4996677;28;20214;-82
2023/05/22 08:21:25;;;;;;;2.43;2.23;;;;;;;;;;4997756;28;20216;-81
2023/05/22 08:23:53;;;;;;;7.70;6.73;;;;;;;;;;5000858;28;20244;-81
2023/05/22 08:26:22;;;;;;;12.13;9.90;;;;;;;;;;4998414;28;20215;-82
2023/05/22 08:28:51;;;;;;;13.73;9.37;;;;;;;;;;4996733;28;20277;-81
2023/05/22 08:31:19;;;;;;;11.73;7.10;;;;;;;;;;4999229;28;20211;-81
2023/05/22 08:33:49;;;;;;;13.83;8.47;;;;;;;;;;5001282;28;22191;-82
2023/05/22 08:36:19;;;;;;;8.13;4.73;;;;;;;;;;4999502;28;20206;-81
2023/05/22 08:38:47;;;;;;;1.27;1.17;;;;;;;;;;5000243;28;20235;-80
2023/05/22 08:41:16;;;;;;;8.70;7.63;;;;;;;;;;4998917;28;20219;-81
2023/05/22 08:43:45;;;;;;;11.40;8.13;;;;;;;;;;4996182;28;20208;-83
2023/05/22 08:46:15;;;;;;;5.33;4.10;;;;;;;;;;4995745;28;20230;-82
2023/05/22 08:48:44;;;;;;;3.53;3.17;;;;;;;;;;5001540;28;20303;-82
2023/05/22 08:51:15;;;;;;;4.07;3.27;;;;;;;;;;4996193;28;20206;-82
2023/05/22 08:53:46;;;;;;;2.73;2.23;;;;;;;;;;5010876;28;20211;-82
2023/05/22 08:56:15;;;;;;;8.67;5.90;;;;;;;;;;5003300;28;20207;-82
2023/05/22 08:58:44;;;;;;;4.63;4.13;;;;;;;;;;5000325;28;20213;-82
2023/05/22 09:01:14;;;;;;;3.57;3.07;;;;;;;;;;4997062;28;20214;-82
2023/05/22 09:03:42;;;;;;;11.63;9.17;;;;;;;;;;5000436;28;20215;-82
2023/05/22 09:06:11;;;;;;;4.77;3.00;;;;;;;;;;5005333;28;20223;-82
2023/05/22 09:08:42;;;;;;;5.43;4.33;;;;;;;;;;5002252;28;20197;-82
2023/05/22 09:11:11;;;;;;;2.47;2.27;;;;;;;;;;4996823;28;20214;-82
2023/05/22 09:13:40;;;;;;;2.20;2.10;;;;;;;;;;5005524;28;20250;-82
2023/05/22 09:16:09;;;;;;;5.07;2.57;;;;;;;;;;4996734;28;20236;-82
2023/05/22 09:18:38;;;;;;;5.90;4.10;;;;;;;;;;5004079;28;20224;-82
2023/05/22 09:21:07;;;;;;;9.13;8.30;;;;;;;;;;4998576;28;20224;-82
2023/05/22 09:24:01;;;;;;;3.63;3.30;;;;;;;;;;4994833;28;20289;-82
2023/05/22 09:26:32;;;;;;;9.80;8.83;;;;;;;;;;4997937;28;20211;-82
2023/05/22 09:29:01;;;;;;;1.53;1.50;;;;;;;;;;4999925;28;20217;-82
2023/05/22 09:31:30;;;;;;;10.33;8.50;;;;;;;;;;5000913;28;20205;-82
2023/05/22 09:33:59;;;;;;;5.33;2.70;;;;;;;;;;4995959;28;20213;-82
2023/05/22 09:36:32;;;;;;;2.33;2.13;;;;;;;;;;4996290;28;20230;-82
2023/05/22 09:39:04;;;;;;;1.00;1.00;;;;;;;;;;4999848;28;20213;-82
2023/05/22 09:41:34;;;;;;;3.50;3.07;;;;;;;;;;5002358;28;20207;-82
2023/05/22 09:44:07;;;;;;;4.33;3.93;;;;;;;;;;5001354;28;20221;-81
2023/05/22 09:46:40;;;;;;;2.97;2.77;;;;;;;;;;5001424;28;20225;-81
2023/05/22 09:49:09;;;;;;;3.47;3.17;;;;;;;;;;4999437;28;20217;-81
2023/05/22 09:51:41;;;;;;;4.33;3.30;;;;;;;;;;5003785;28;20217;-81
2023/05/22 09:54:11;;;;;;;2.57;2.37;;;;;;;;;;5004157;28;20207;-82
2023/05/22 09:56:40;;;;;;;1.33;1.20;;;;;;;;;;5002257;28;20257;-81
2023/05/22 09:59:09;;;;;;;3.10;2.90;;;;;;;;;;5009742;28;20269;-82
2023/05/22 10:01:39;;;;;;;2.57;2.37;;;;;;;;;;5003249;28;20310;-81
2023/05/22 10:04:10;;;;;;;3.20;3.00;;;;;;;;;;5008060;28;20301;-82
2023/05/22 10:06:40;;;;;;;3.50;2.53;;;;;;;;;;5005689;28;20235;-82
2023/05/22 10:09:13;;;;;;;2.97;2.70;;;;;;;;;;5003008;28;20215;-83
2023/05/22 10:11:46;;;;;;;2.87;2.40;;;;;;;;;;5004852;28;20264;-81
2023/05/22 10:14:15;;;;;;;3.00;2.80;;;;;;;;;;5013529;28;20217;-82
2023/05/22 10:16:50;;;;;;;6.23;2.33;;;;;;;;;;5005233;28;20222;-84
2023/05/22 10:19:25;;;;;;;6.93;5.67;;;;;;;;;;5016027;28;20297;-82
2023/05/22 10:21:58;;;;;;;9.00;3.27;;;;;;;;;;5007050;28;20207;-80
2023/05/22 10:24:29;;;;;;;2.43;2.23;;;;;;;;;;5005546;28;20241;-84
2023/05/22 10:27:00;;;;;;;10.43;9.57;;;;;;;;;;5006865;28;20279;-84
2023/05/22 10:29:34;;;;;;;5.20;4.30;;;;;;;;;;5006177;28;20213;-85
2023/05/22 10:32:05;;;;;;;10.73;8.57;;;;;;;;;;5005448;28;20206;-85
2023/05/22 10:34:38;;;;;;;1.47;1.10;;;;;;;;;;5007889;28;20226;-80
2023/05/22 10:37:16;;;;;;;5.23;3.13;;;;;;;;;;5002064;28;20226;-82
2023/05/22 10:39:55;;;;;;;5.23;3.53;;;;;;;;;;5006037;28;20201;-81
2023/05/22 10:42:25;;;;;;;8.80;6.33;;;;;;;;;;5005872;28;20287;-82
2023/05/22 10:44:54;;;;;;;3.70;3.40;;;;;;;;;;5002896;28;20216;-82
2023/05/22 10:47:22;;;;;;;6.80;3.80;;;;;;;;;;5004143;28;20208;-85
2023/05/22 10:50:03;;;;;;;0.57;0.57;;;;;;;;;;5003173;28;20220;-86
2023/05/22 10:52:32;;;;;;;1.07;0.97;;;;;;;;;;5010740;28;20212;-86
2023/05/22 10:55:01;;;;;;;1.97;1.83;;;;;;;;;;5015320;28;20206;-86
2023/05/22 10:57:34;;;;;;;3.73;3.33;;;;;;;;;;5013628;28;20208;-87
2023/05/22 11:00:09;;;;;;;11.40;2.27;;;;;;;;;;5013259;28;20261;-86
2023/05/22 11:02:42;;;;;;;4.87;3.57;;;;;;;;;;5012512;28;20213;-86
2023/05/22 11:05:29;;;;;;;3.00;1.93;;;;;;;;;;5014204;28;20206;-86
2023/05/22 11:08:09;;;;;;;5.17;3.50;;;;;;;;;;5012468;28;20207;-86
2023/05/22 11:10:54;;;;;;;4.77;2.47;;;;;;;;;;5013168;28;20220;-86
2023/05/22 11:13:27;;;;;;;2.03;1.77;;;;;;;;;;5013815;28;20205;-86
2023/05/22 11:15:57;;;;;;;4.00;3.50;;;;;;;;;;5013832;28;20218;-86
2023/05/22 11:18:29;;;;;;;4.07;3.37;;;;;;;;;;5013184;28;20200;-86
2023/05/22 11:21:00;;;;;;;2.90;2.70;;;;;;;;;;5013656;28;20213;-86
2023/05/22 11:23:28;;;;;;;3.37;2.67;;;;;;;;;;5014327;28;20205;-86
2023/05/22 11:25:57;;;;;;;7.77;6.10;;;;;;;;;;5012920;28;20313;-82
2023/05/22 11:28:29;;;;;;;1.53;1.43;;;;;;;;;;5013371;28;20223;-86
2023/05/22 11:30:57;;;;;;;3.17;1.93;;;;;;;;;;5013756;28;20206;-86
2023/05/22 11:33:26;;;;;;;13.90;3.47;;;;;;;;;;5014327;28;20260;-85
2023/05/22 11:35:55;;;;;;;5.67;4.80;;;;;;;;;;5013231;28;20215;-85
2023/05/22 11:38:24;;;;;;;5.50;4.53;;;;;;;;;;5013467;28;20206;-86
2023/05/22 11:40:53;;;;;;;6.13;2.97;;;;;;;;;;5013449;28;20222;-86
2023/05/22 11:43:31;;;;;;;2.33;2.23;;;;;;;;;;5013197;28;20207;-86
2023/05/22 11:46:01;;;;;;;5.47;4.60;;;;;;;;;;5013477;28;20198;-85
2023/05/22 11:48:30;;;;;;;3.57;2.80;;;;;;;;;;5013382;28;20203;-86
2023/05/22 11:50:59;;;;;;;3.47;3.17;;;;;;;;;;5013077;28;20302;-85
2023/05/22 11:53:28;;;;;;;4.47;3.07;;;;;;;;;;5013075;28;20206;-85
2023/05/22 11:55:57;;;;;;;4.40;3.17;;;;;;;;;;5013193;28;20230;-85
2023/05/22 11:58:29;;;;;;;6.07;3.27;;;;;;;;;;5013282;28;20243;-85
2023/05/22 12:01:03;;;;;;;6.33;4.30;;;;;;;;;;5012660;28;20201;-86
2023/05/22 12:03:32;;;;;;;9.27;5.67;;;;;;;;;;5012516;28;20206;-85
2023/05/22 12:06:02;;;;;;;8.63;4.67;;;;;;;;;;5012753;28;20199;-85
2023/05/22 12:08:30;;;;;;;5.37;3.63;;;;;;;;;;5012843;28;20239;-85
2023/05/22 12:10:59;;;;;;;10.57;6.43;;;;;;;;;;5012395;28;20252;-85
2023/05/22 12:13:28;;;;;;;7.57;4.67;;;;;;;;;;5013020;28;20199;-85
2023/05/22 12:16:00;;;;;;;5.00;4.20;;;;;;;;;;5012785;28;20223;-86
2023/05/22 12:18:36;;;;;;;6.10;3.17;;;;;;;;;;5012786;28;20205;-85
2023/05/22 12:21:06;;;;;;;14.60;9.33;;;;;;;;;;5012860;28;20296;-85
2023/05/22 12:23:35;;;;;;;3.40;2.50;;;;;;;;;;5012458;28;20198;-85
2023/05/22 12:26:04;;;;;;;2.93;2.20;;;;;;;;;;5012066;28;20253;-85
2023/05/22 12:28:33;;;;;;;8.50;3.97;;;;;;;;;;5012079;28;20305;-85
2023/05/22 12:31:01;;;;;;;5.47;3.67;;;;;;;;;;5012333;28;20201;-85
2023/05/22 12:33:32;;;;;;;7.93;4.07;;;;;;;;;;5012209;28;20205;-86
2023/05/22 12:36:00;;;;;;;21.93;9.40;;;;;;;;;;5012552;28;20220;-85
2023/05/22 12:38:31;;;;;;;6.50;4.50;;;;;;;;;;5012543;28;20259;-85
2023/05/22 12:41:02;;;;;;;5.00;3.60;;;;;;;;;;5012025;28;20304;-85
2023/05/22 12:43:31;;;;;;;4.20;3.77;;;;;;;;;;5012174;28;20228;-85
2023/05/22 12:45:59;;;;;;;8.27;4.83;;;;;;;;;;5012694;28;20214;-85
2023/05/22 12:48:31;;;;;;;2.33;1.77;;;;;;;;;;5012464;28;20209;-86
2023/05/22 12:51:00;;;;;;;4.13;3.27;;;;;;;;;;5011912;28;20206;-86
2023/05/22 12:53:28;;;;;;;4.43;3.23;;;;;;;;;;5011955;28;20201;-86
2023/05/22 12:55:57;;;;;;;10.10;4.27;;;;;;;;;;5012216;28;20213;-86
2023/05/22 12:58:25;;;;;;;10.03;5.90;;;;;;;;;;5012192;28;20203;-83
2023/05/22 13:00:54;;;;;;;6.10;4.80;;;;;;;;;;5012214;28;20216;-82
2023/05/22 13:03:22;;;;;;;4.37;3.50;;;;;;;;;;5012051;28;20217;-82
2023/05/22 13:05:52;;;;;;;7.57;5.33;;;;;;;;;;5012045;28;20205;-82
2023/05/22 13:08:21;;;;;;;4.90;4.20;;;;;;;;;;5011987;28;20203;-82
2023/05/22 13:10:49;;;;;;;7.63;5.20;;;;;;;;;;5012179;28;20195;-82
2023/05/22 13:13:18;;;;;;;9.03;4.80;;;;;;;;;;5011761;28;20202;-83
2023/05/22 13:15:46;;;;;;;10.43;5.70;;;;;;;;;;5015325;28;20198;-83
2023/05/22 13:18:15;;;;;;;6.17;3.70;;;;;;;;;;5015947;28;20226;-83
2023/05/22 13:20:43;;;;;;;4.50;3.90;;;;;;;;;;5016014;28;20209;-83
2023/05/22 13:23:13;;;;;;;3.60;3.23;;;;;;;;;;5015749;28;20211;-86
2023/05/22 13:25:42;;;;;;;6.37;4.33;;;;;;;;;;5013882;28;20241;-85
2023/05/22 13:28:10;;;;;;;3.93;3.47;;;;;;;;;;5016133;28;20247;-86
2023/05/22 13:30:39;;;;;;;2.97;2.73;;;;;;;;;;5015515;28;20228;-86
2023/05/22 13:33:08;;;;;;;5.57;4.40;;;;;;;;;;5015865;28;20200;-86
2023/05/22 13:35:36;;;;;;;12.60;6.27;;;;;;;;;;5015664;28;20256;-83
2023/05/22 13:38:05;;;;;;;4.63;4.10;;;;;;;;;;5015063;28;20288;-83
2023/05/22 13:40:35;;;;;;;4.60;4.10;;;;;;;;;;5015253;28;20230;-83
2023/05/22 13:43:04;;;;;;;3.87;3.57;;;;;;;;;;5015254;28;20204;-83
2023/05/22 13:45:32;;;;;;;2.97;2.17;;;;;;;;;;5015283;28;20233;-83
2023/05/22 13:48:01;;;;;;;5.57;5.07;;;;;;;;;;5015138;28;20201;-83
2023/05/22 13:50:30;;;;;;;14.20;5.93;;;;;;;;;;5015546;28;20252;-83
2023/05/22 13:53:00;;;;;;;2.03;1.37;;;;;;;;;;5015663;28;20231;-83
2023/05/22 13:55:29;;;;;;;3.40;2.47;;;;;;;;;;5015243;28;20231;-83
2023/05/22 13:57:59;;;;;;;7.70;4.33;;;;;;;;;;5015066;28;20219;-83
2023/05/22 14:00:27;;;;;;;3.77;3.43;;;;;;;;;;5015430;28;20304;-83
2023/05/22 14:02:56;;;;;;;7.20;4.63;;;;;;;;;;5014850;28;20207;-82
2023/05/22 14:05:25;;;;;;;5.23;4.17;;;;;;;;;;5014995;28;20201;-83
2023/05/22 14:07:55;;;;;;;6.47;4.00;;;;;;;;;;5014976;28;20198;-82
2023/05/22 14:10:24;;;;;;;4.40;3.13;;;;;;;;;;5014976;28;20319;-83
2023/05/22 14:12:53;;;;;;;3.00;2.60;;;;;;;;;;5014694;28;20211;-83
2023/05/22 14:15:23;;;;;;;4.33;3.90;;;;;;;;;;5015331;28;20224;-82
2023/05/22 14:17:51;;;;;;;9.27;5.60;;;;;;;;;;5015179;28;20270;-83
2023/05/22 14:20:20;;;;;;;12.40;4.63;;;;;;;;;;5014408;28;20257;-83
2023/05/22 14:22:49;;;;;;;7.17;6.40;;;;;;;;;;5014663;28;20212;-82
2023/05/22 14:25:25;;;;;;;5.30;3.43;;;;;;;;;;5014076;28;20249;-83
2023/05/22 14:27:54;;;;;;;10.70;6.57;;;;;;;;;;5014092;28;20274;-82
2023/05/22 14:30:24;;;;;;;4.90;3.13;;;;;;;;;;5014151;28;20202;-83
2023/05/22 14:32:52;;;;;;;12.27;5.27;;;;;;;;;;5014624;28;20211;-82
2023/05/22 14:35:21;;;;;;;5.60;4.20;;;;;;;;;;5014317;28;20234;-82
2023/05/22 14:37:49;;;;;;;4.77;3.03;;;;;;;;;;5013668;28;20247;-82
2023/05/22 14:40:18;;;;;;;4.57;3.57;;;;;;;;;;5014375;28;20211;-83
2023/05/22 14:42:46;;;;;;;4.07;3.40;;;;;;;;;;5014314;28;20213;-83
2023/05/22 14:45:15;;;;;;;4.77;4.37;;;;;;;;;;5014065;28;20212;-82
2023/05/22 14:47:45;;;;;;;5.73;5.17;;;;;;;;;;5014153;28;20242;-84
2023/05/22 14:50:13;;;;;;;2.80;2.07;;;;;;;;;;5014544;28;20228;-84
2023/05/22 14:52:47;;;;;;;11.47;4.93;;;;;;;;;;5013849;28;20262;-84
2023/05/22 14:55:16;;;;;;;5.90;4.73;;;;;;;;;;5014206;28;20193;-84